createdAt,value
2022-11-13T00:01:41.209Z,13.00
2022-11-13T00:04:27.053Z,12.90
2022-11-13T00:07:12.647Z,13.10
2022-11-13T00:09:58.300Z,13.40
2022-11-13T00:12:43.880Z,13.70
2022-11-13T00:15:29.607Z,14.00
2022-11-13T00:18:15.068Z,14.10
2022-11-13T00:21:15.583Z,14.30
2022-11-13T00:24:00.849Z,14.40
2022-11-13T00:26:46.281Z,14.60
2022-11-13T00:29:31.892Z,14.70
2022-11-13T00:32:17.402Z,14.70
2022-11-13T00:35:02.691Z,14.90
2022-11-13T00:37:48.279Z,14.90
2022-11-13T00:40:34.622Z,14.80
2022-11-13T00:43:19.962Z,14.80
2022-11-13T00:46:06.609Z,14.70
2022-11-13T00:48:51.943Z,14.60
2022-11-13T00:51:37.405Z,14.50
2022-11-13T00:54:23.000Z,14.50
2022-11-13T00:57:08.597Z,14.60
2022-11-13T00:59:54.233Z,14.70
2022-11-13T01:02:39.658Z,14.80
2022-11-13T01:05:26.007Z,14.90
2022-11-13T01:08:12.840Z,15.00
2022-11-13T01:10:59.039Z,15.00
2022-11-13T01:13:46.710Z,15.00
2022-11-13T01:16:32.193Z,15.00
2022-11-13T01:19:17.547Z,15.00
2022-11-13T01:22:03.237Z,15.00
2022-11-13T01:24:48.585Z,15.00
2022-11-13T01:27:37.083Z,15.20
2022-11-13T01:30:22.681Z,15.30
2022-11-13T01:33:08.183Z,15.30
2022-11-13T01:35:59.354Z,15.30
2022-11-13T01:38:45.238Z,15.40
2022-11-13T01:41:33.946Z,15.40
2022-11-13T01:44:20.379Z,15.40
2022-11-13T01:47:05.830Z,15.30
2022-11-13T01:49:54.952Z,15.10
2022-11-13T01:52:42.352Z,15.00
2022-11-13T01:55:28.119Z,14.70
2022-11-13T01:58:13.927Z,14.60
2022-11-13T02:00:59.487Z,14.50
2022-11-13T02:03:44.787Z,14.60
2022-11-13T02:06:55.412Z,14.50
2022-11-13T02:09:44.113Z,14.50
2022-11-13T02:12:39.214Z,14.40
2022-11-13T02:15:27.014Z,14.40
2022-11-13T02:18:14.247Z,14.40
2022-11-13T02:21:10.275Z,14.40
2022-11-13T02:24:17.486Z,14.30
2022-11-13T02:27:06.417Z,14.30
2022-11-13T02:29:51.806Z,14.10
2022-11-13T02:32:46.811Z,14.10
2022-11-13T02:35:37.748Z,14.10
2022-11-13T02:38:23.689Z,14.00
2022-11-13T02:41:08.860Z,14.00
2022-11-13T02:43:54.320Z,13.90
2022-11-13T02:46:39.844Z,13.90
2022-11-13T02:49:25.472Z,13.80
2022-11-13T02:52:10.957Z,13.60
2022-11-13T02:54:56.300Z,13.50
2022-11-13T02:57:41.883Z,13.30
2022-11-13T03:00:27.526Z,13.10
2022-11-13T03:03:13.009Z,12.90
2022-11-13T03:05:58.614Z,12.90
2022-11-13T03:08:43.902Z,13.00
2022-11-13T03:11:29.459Z,13.20
2022-11-13T03:14:14.967Z,13.60
2022-11-13T03:17:00.728Z,13.80
2022-11-13T03:19:46.087Z,13.90
2022-11-13T03:22:32.080Z,13.80
2022-11-13T03:25:17.805Z,13.80
2022-11-13T03:28:03.450Z,13.70
2022-11-13T03:30:48.878Z,13.70
2022-11-13T03:33:34.667Z,13.60
2022-11-13T03:36:20.344Z,13.50
2022-11-13T03:39:05.908Z,13.50
2022-11-13T03:41:51.512Z,13.40
2022-11-13T03:44:36.932Z,13.30
2022-11-13T03:47:22.490Z,13.30
2022-11-13T03:50:08.334Z,13.20
2022-11-13T03:52:53.849Z,13.20
2022-11-13T03:55:39.767Z,13.10
2022-11-13T03:58:25.174Z,13.00
2022-11-13T04:01:10.867Z,13.00
2022-11-13T04:03:56.281Z,12.90
2022-11-13T04:06:42.167Z,12.80
2022-11-13T04:09:27.858Z,12.70
2022-11-13T04:12:13.264Z,12.70
2022-11-13T04:14:58.821Z,12.60
2022-11-13T04:17:44.415Z,12.60
2022-11-13T04:20:30.246Z,12.50
2022-11-13T04:23:17.931Z,12.30
2022-11-13T04:26:05.335Z,12.20
2022-11-13T04:28:51.016Z,12.00
2022-11-13T04:31:36.649Z,11.90
2022-11-13T04:34:22.027Z,11.70
2022-11-13T04:37:07.723Z,11.50
2022-11-13T04:39:53.269Z,11.30
2022-11-13T04:42:50.798Z,11.20
2022-11-13T04:45:36.934Z,11.00
2022-11-13T04:48:22.512Z,10.90
2022-11-13T04:51:08.008Z,10.80
2022-11-13T04:53:53.318Z,10.60
2022-11-13T04:56:38.913Z,10.50
2022-11-13T04:59:24.652Z,10.40
2022-11-13T05:02:10.209Z,10.30
2022-11-13T05:04:58.219Z,10.20
2022-11-13T05:07:46.111Z,10.20
2022-11-13T05:10:31.593Z,10.10
2022-11-13T05:13:17.372Z,10.10
2022-11-13T05:16:04.968Z,9.90
2022-11-13T05:18:50.262Z,9.90
2022-11-13T05:21:37.258Z,9.80
2022-11-13T05:24:22.488Z,9.80
2022-11-13T05:27:10.456Z,9.70
2022-11-13T05:29:59.800Z,9.70
2022-11-13T05:32:45.319Z,9.70
2022-11-13T05:35:30.894Z,9.60
2022-11-13T05:38:16.589Z,9.50
2022-11-13T05:41:04.669Z,9.60
2022-11-13T05:43:55.022Z,9.50
2022-11-13T05:46:43.803Z,9.50
2022-11-13T05:49:29.403Z,9.50
2022-11-13T05:52:14.890Z,9.40
2022-11-13T05:55:00.536Z,9.40
2022-11-13T05:57:46.030Z,9.40
2022-11-13T06:00:31.535Z,9.30
2022-11-13T06:03:17.200Z,9.30
2022-11-13T06:06:02.999Z,9.30
2022-11-13T06:08:49.498Z,9.30
2022-11-13T06:11:34.757Z,9.30
2022-11-13T06:14:20.229Z,9.20
2022-11-13T06:17:05.837Z,9.20
2022-11-13T06:19:51.240Z,9.20
2022-11-13T06:22:36.775Z,9.30
2022-11-13T06:25:22.339Z,9.30
2022-11-13T06:28:07.930Z,9.40
2022-11-13T06:30:53.609Z,9.40
2022-11-13T06:33:40.221Z,9.40
2022-11-13T06:36:28.900Z,9.50
2022-11-13T06:39:14.341Z,9.50
2022-11-13T06:41:59.986Z,9.60
2022-11-13T06:44:45.635Z,9.60
2022-11-13T06:47:31.281Z,9.70
2022-11-13T06:50:17.010Z,9.70
2022-11-13T06:53:02.523Z,9.70
2022-11-13T06:55:49.946Z,9.70
2022-11-13T06:58:35.997Z,9.80
2022-11-13T07:01:24.338Z,10.50
2022-11-13T07:04:12.456Z,11.90
2022-11-13T07:06:58.152Z,13.40
2022-11-13T07:09:43.670Z,14.70
2022-11-13T07:12:29.343Z,16.10
2022-11-13T07:15:16.555Z,17.30
2022-11-13T07:18:03.690Z,18.50
2022-11-13T07:20:49.304Z,19.40
2022-11-13T07:23:37.134Z,20.40
2022-11-13T07:26:23.098Z,21.30
2022-11-13T07:29:08.582Z,22.10
2022-11-13T07:31:54.453Z,22.70
2022-11-13T07:34:39.756Z,22.90
2022-11-13T07:37:27.012Z,23.20
2022-11-13T07:40:12.896Z,23.30
2022-11-13T07:43:02.890Z,23.70
2022-11-13T07:45:54.641Z,24.10
2022-11-13T07:48:40.799Z,24.20
2022-11-13T07:51:29.349Z,24.20
2022-11-13T07:54:15.698Z,24.10
2022-11-13T07:57:00.891Z,23.80
2022-11-13T07:59:46.455Z,23.50
2022-11-13T08:02:31.964Z,23.20
2022-11-13T08:05:17.832Z,22.90
2022-11-13T08:08:03.859Z,22.60
2022-11-13T08:10:49.324Z,22.50
2022-11-13T08:13:36.150Z,22.30
2022-11-13T08:16:23.482Z,22.10
2022-11-13T08:19:09.683Z,21.60
2022-11-13T08:21:55.301Z,21.40
2022-11-13T08:24:41.023Z,21.50
2022-11-13T08:27:26.380Z,21.70
2022-11-13T08:30:13.033Z,22.10
2022-11-13T08:32:58.474Z,22.20
2022-11-13T08:35:53.488Z,22.40
2022-11-13T08:38:38.968Z,22.70
2022-11-13T08:41:24.751Z,22.90
2022-11-13T08:44:12.769Z,23.20
2022-11-13T08:46:58.493Z,23.60
2022-11-13T08:49:43.896Z,23.80
2022-11-13T08:52:29.355Z,23.80
2022-11-13T08:55:15.137Z,23.70
2022-11-13T08:58:01.447Z,23.50
2022-11-13T09:00:46.823Z,23.80
2022-11-13T09:03:32.368Z,23.90
2022-11-13T09:06:17.663Z,24.30
2022-11-13T09:09:04.232Z,24.80
2022-11-13T09:11:49.788Z,25.20
2022-11-13T09:14:35.818Z,25.70
2022-11-13T09:17:20.912Z,26.30
2022-11-13T09:20:13.543Z,27.50
2022-11-13T09:23:03.728Z,28.30
2022-11-13T09:25:48.874Z,28.90
2022-11-13T09:28:35.501Z,29.60
2022-11-13T09:31:20.654Z,29.60
2022-11-13T09:34:05.719Z,29.10
2022-11-13T09:36:51.130Z,28.80
2022-11-13T09:39:36.365Z,29.30
2022-11-13T09:42:23.794Z,29.20
2022-11-13T09:45:11.517Z,29.10
2022-11-13T09:47:58.618Z,28.70
2022-11-13T09:50:44.031Z,28.50
2022-11-13T09:53:33.594Z,28.80
2022-11-13T09:56:21.717Z,29.20
2022-11-13T09:59:24.761Z,29.20
2022-11-13T10:02:12.918Z,28.40
2022-11-13T10:05:10.238Z,28.20
2022-11-13T10:08:16.658Z,28.30
2022-11-13T10:11:24.341Z,27.90
2022-11-13T10:14:09.509Z,27.30
2022-11-13T10:17:00.647Z,26.60
2022-11-13T10:19:48.926Z,26.60
2022-11-13T10:22:34.578Z,27.00
2022-11-13T10:25:22.318Z,27.40
2022-11-13T10:31:28.828Z,26.90
2022-11-13T10:34:14.649Z,27.40
2022-11-13T10:37:09.276Z,27.60
2022-11-13T10:39:54.451Z,27.20
2022-11-13T10:42:42.786Z,27.10
2022-11-13T10:45:27.960Z,27.20
2022-11-13T10:48:20.732Z,27.50
2022-11-13T10:51:26.478Z,27.00
2022-11-13T10:54:24.349Z,26.80
2022-11-13T10:57:28.703Z,26.80
2022-11-13T11:00:23.738Z,25.20
2022-11-13T11:03:13.730Z,23.60
2022-11-13T11:06:00.709Z,22.70
2022-11-13T11:08:45.793Z,24.00
2022-11-13T11:11:49.778Z,25.70
2022-11-13T11:14:38.559Z,26.10
2022-11-13T11:17:49.498Z,26.20
2022-11-13T11:21:00.650Z,26.80
2022-11-13T11:23:49.483Z,26.70
2022-11-13T11:27:03.370Z,26.70
2022-11-13T11:29:59.096Z,26.20
2022-11-13T11:32:53.415Z,25.80
2022-11-13T11:36:17.560Z,25.40
2022-11-13T11:39:12.548Z,25.20
2022-11-13T11:42:06.831Z,25.20
2022-11-13T11:45:00.070Z,25.00
2022-11-13T11:47:45.336Z,25.20
2022-11-13T11:50:55.813Z,25.00
2022-11-13T11:54:02.734Z,24.60
2022-11-13T11:56:59.916Z,24.30
2022-11-13T12:00:03.682Z,24.80
2022-11-13T12:03:07.868Z,24.60
2022-11-13T12:06:00.898Z,23.70
2022-11-13T12:08:51.537Z,23.10
2022-11-13T12:11:39.426Z,23.20
2022-11-13T12:14:30.935Z,23.40
2022-11-13T12:17:29.580Z,23.20
2022-11-13T12:20:19.278Z,22.40
2022-11-13T12:23:13.701Z,22.10
2022-11-13T12:26:05.162Z,22.40
2022-11-13T12:29:09.678Z,22.60
2022-11-13T12:31:58.042Z,23.30
2022-11-13T12:34:51.885Z,24.30
2022-11-13T12:37:43.869Z,24.60
2022-11-13T12:40:53.762Z,24.60
2022-11-13T12:43:47.945Z,24.10
2022-11-13T12:46:34.804Z,23.40
2022-11-13T12:49:29.262Z,23.00
2022-11-13T12:52:17.466Z,22.70
2022-11-13T12:55:07.342Z,22.30
2022-11-13T12:57:52.457Z,22.00
2022-11-13T13:00:39.862Z,21.70
2022-11-13T13:03:43.416Z,21.10
2022-11-13T13:06:37.943Z,20.50
2022-11-13T13:10:02.547Z,20.30
2022-11-13T13:13:21.003Z,20.20
2022-11-13T13:16:10.381Z,20.00
2022-11-13T13:19:20.742Z,19.90
2022-11-13T13:22:11.752Z,20.10
2022-11-13T13:25:10.587Z,20.30
2022-11-13T13:28:01.407Z,19.90
2022-11-13T13:31:20.335Z,19.50
2022-11-13T13:34:05.770Z,19.40
2022-11-13T13:37:15.022Z,20.10
2022-11-13T13:40:15.062Z,20.30
2022-11-13T13:43:09.869Z,20.20
2022-11-13T13:46:16.481Z,20.30
2022-11-13T13:49:16.347Z,20.70
2022-11-13T13:52:02.812Z,20.90
2022-11-13T13:54:49.249Z,20.50
2022-11-13T13:57:41.449Z,20.00
2022-11-13T14:00:26.969Z,19.50
2022-11-13T14:03:18.772Z,19.10
2022-11-13T14:06:20.162Z,18.80
2022-11-13T14:09:18.534Z,18.50
2022-11-13T14:12:09.936Z,18.10
2022-11-13T14:14:56.074Z,17.80
2022-11-13T14:17:41.672Z,17.80
2022-11-13T14:20:27.428Z,17.70
2022-11-13T14:23:14.879Z,17.50
2022-11-13T14:26:00.043Z,17.40
2022-11-13T14:28:48.651Z,17.20
2022-11-13T14:31:36.964Z,17.00
2022-11-13T14:34:23.955Z,16.70
2022-11-13T14:37:35.977Z,16.40
2022-11-13T14:40:33.930Z,16.10
2022-11-13T14:43:22.177Z,15.80
2022-11-13T14:46:44.482Z,15.70
2022-11-13T14:49:38.453Z,15.50
2022-11-13T14:52:24.927Z,15.40
2022-11-13T14:55:20.211Z,15.30
2022-11-13T14:58:05.748Z,15.30
2022-11-13T15:00:51.352Z,15.30
2022-11-13T15:03:36.779Z,15.30
2022-11-13T15:06:23.776Z,15.30
2022-11-13T15:09:13.475Z,15.20
2022-11-13T15:11:58.945Z,15.20
2022-11-13T15:14:44.982Z,15.10
2022-11-13T15:17:30.455Z,14.90
2022-11-13T15:20:23.207Z,14.70
2022-11-13T15:23:11.329Z,14.60
2022-11-13T15:25:57.640Z,14.40
2022-11-13T15:28:43.191Z,14.30
2022-11-13T15:31:42.125Z,14.20
2022-11-13T15:34:27.812Z,14.10
2022-11-13T15:37:16.799Z,14.00
2022-11-13T15:40:02.615Z,13.90
2022-11-13T15:42:48.297Z,13.90
2022-11-13T15:45:33.446Z,13.90
2022-11-13T15:48:18.821Z,13.80
2022-11-13T15:51:04.907Z,13.80
2022-11-13T15:53:57.095Z,13.70
2022-11-13T15:56:43.892Z,13.60
2022-11-13T15:59:29.339Z,13.60
2022-11-13T16:02:15.153Z,13.50
2022-11-13T16:05:00.617Z,13.40
2022-11-13T16:07:46.143Z,13.30
2022-11-13T16:10:31.670Z,13.20
2022-11-13T16:13:17.218Z,13.10
2022-11-13T16:16:02.881Z,13.00
2022-11-13T16:18:50.218Z,13.00
2022-11-13T16:21:35.637Z,12.90
2022-11-13T16:24:24.245Z,12.80
2022-11-13T16:27:15.009Z,12.70
2022-11-13T16:30:05.477Z,12.70
2022-11-13T16:32:52.345Z,12.60
2022-11-13T16:35:39.383Z,12.60
2022-11-13T16:38:24.823Z,12.60
2022-11-13T16:41:11.486Z,12.60
2022-11-13T16:43:56.784Z,12.60
2022-11-13T16:46:45.427Z,12.70
2022-11-13T16:49:30.760Z,12.70
2022-11-13T16:52:16.975Z,12.70
2022-11-13T16:55:06.267Z,12.70
2022-11-13T16:57:52.148Z,12.70
2022-11-13T17:00:37.788Z,12.80
2022-11-13T17:03:23.293Z,12.80
2022-11-13T17:06:28.344Z,12.80
2022-11-13T17:09:13.796Z,12.80
2022-11-13T17:11:59.343Z,12.80
2022-11-13T17:14:46.974Z,12.80
2022-11-13T17:17:32.275Z,12.80
2022-11-13T17:20:19.452Z,12.80
2022-11-13T17:23:04.930Z,12.80
2022-11-13T17:25:50.355Z,12.80
2022-11-13T17:28:35.698Z,12.80
2022-11-13T17:31:21.437Z,12.80
2022-11-13T17:34:07.094Z,12.80
2022-11-13T17:36:54.715Z,12.80
2022-11-13T17:39:40.049Z,12.80
2022-11-13T17:42:25.607Z,12.80
2022-11-13T17:45:11.142Z,12.70
2022-11-13T17:47:56.632Z,12.70
2022-11-13T17:50:42.328Z,12.70
2022-11-13T17:53:28.487Z,12.70
2022-11-13T17:56:14.907Z,12.70
2022-11-13T17:59:00.340Z,12.70
2022-11-13T18:01:45.975Z,12.70
2022-11-13T18:04:31.173Z,12.70
2022-11-13T18:07:16.920Z,12.60
2022-11-13T18:10:02.869Z,12.60
2022-11-13T18:12:48.312Z,12.60
2022-11-13T18:15:37.688Z,12.60
2022-11-13T18:18:23.091Z,12.50
2022-11-13T18:21:22.772Z,12.50
2022-11-13T18:24:13.535Z,12.50
2022-11-13T18:26:58.950Z,12.50
2022-11-13T18:29:44.456Z,12.40
2022-11-13T18:32:30.113Z,12.40
2022-11-13T18:35:16.001Z,12.40
2022-11-13T18:38:01.368Z,12.40
2022-11-13T18:40:46.706Z,12.40
2022-11-13T18:43:32.962Z,12.30
2022-11-13T18:46:20.767Z,12.40
2022-11-13T18:49:07.364Z,12.40
2022-11-13T18:51:53.006Z,12.40
2022-11-13T18:54:38.508Z,12.40
2022-11-13T18:57:24.289Z,12.40
2022-11-13T19:00:10.245Z,12.40
2022-11-13T19:02:57.577Z,12.50
2022-11-13T19:05:44.609Z,12.50
2022-11-13T19:08:30.151Z,12.50
2022-11-13T19:11:17.957Z,12.50
2022-11-13T19:14:04.455Z,12.50
2022-11-13T19:16:50.067Z,12.50
2022-11-13T19:19:35.459Z,12.50
2022-11-13T19:22:20.802Z,12.50
2022-11-13T19:25:06.750Z,12.50
2022-11-13T19:27:54.299Z,12.50
2022-11-13T19:30:48.497Z,12.50
2022-11-13T19:33:34.408Z,12.50
2022-11-13T19:36:19.655Z,12.40
2022-11-13T19:39:05.619Z,12.40
2022-11-13T19:41:51.089Z,12.40
2022-11-13T19:44:36.794Z,12.40
2022-11-13T19:47:22.021Z,12.50
2022-11-13T19:50:08.045Z,12.40
2022-11-13T19:52:53.614Z,12.50
2022-11-13T19:55:39.050Z,12.50
2022-11-13T19:58:25.286Z,12.50
2022-11-13T20:01:20.208Z,12.50
2022-11-13T20:04:06.221Z,12.50
2022-11-13T20:06:51.825Z,12.50
2022-11-13T20:09:37.983Z,12.50
2022-11-13T20:12:23.899Z,12.50
2022-11-13T20:15:09.774Z,12.50
2022-11-13T20:17:55.560Z,12.60
2022-11-13T20:20:44.211Z,12.60
2022-11-13T20:23:29.843Z,12.60
2022-11-13T20:26:16.745Z,12.60
2022-11-13T20:29:02.364Z,12.60
2022-11-13T20:31:47.926Z,12.60
2022-11-13T20:34:33.468Z,12.60
2022-11-13T20:37:18.755Z,12.60
2022-11-13T20:40:04.816Z,12.50
2022-11-13T20:42:50.211Z,12.50
2022-11-13T20:45:35.825Z,12.50
2022-11-13T20:48:21.302Z,12.50
2022-11-13T20:51:14.686Z,12.50
2022-11-13T20:54:00.231Z,12.50
2022-11-13T20:56:45.863Z,12.40
2022-11-13T20:59:31.215Z,12.50
2022-11-13T21:02:16.851Z,12.40
2022-11-13T21:05:02.396Z,12.50
2022-11-13T21:07:47.889Z,12.60
2022-11-13T21:10:34.302Z,12.60
2022-11-13T21:13:20.099Z,12.70
2022-11-13T21:16:10.279Z,12.70
2022-11-13T21:18:58.100Z,12.80
2022-11-13T21:21:44.558Z,12.70
2022-11-13T21:24:30.331Z,12.80
2022-11-13T21:27:16.135Z,12.80
2022-11-13T21:30:01.468Z,12.80
2022-11-13T21:32:47.033Z,12.80
2022-11-13T21:35:32.708Z,12.80
2022-11-13T21:38:18.022Z,12.80
2022-11-13T21:41:24.100Z,12.80
2022-11-13T21:44:10.871Z,12.80
2022-11-13T21:46:56.331Z,12.80
2022-11-13T21:49:42.106Z,12.80
2022-11-13T21:52:27.643Z,12.70
2022-11-13T21:55:12.901Z,12.70
2022-11-13T21:57:58.615Z,12.70
2022-11-13T22:00:44.439Z,12.70
2022-11-13T22:03:30.503Z,12.60
2022-11-13T22:06:28.420Z,12.60
2022-11-13T22:09:19.282Z,12.60
2022-11-13T22:12:04.873Z,12.50
2022-11-13T22:14:50.297Z,12.50
2022-11-13T22:17:35.855Z,12.50
2022-11-13T22:20:21.382Z,12.40
2022-11-13T22:23:06.790Z,12.40
2022-11-13T22:25:58.490Z,12.40
2022-11-13T22:28:45.304Z,12.40
2022-11-13T22:31:31.985Z,12.40
2022-11-13T22:34:18.259Z,12.40
2022-11-13T22:37:03.766Z,12.40
2022-11-13T22:39:49.205Z,12.40
2022-11-13T22:42:34.781Z,12.40
2022-11-13T22:45:24.424Z,12.30
2022-11-13T22:48:11.059Z,12.30
2022-11-13T22:51:01.631Z,12.20
2022-11-13T22:53:52.812Z,12.20
2022-11-13T22:56:40.018Z,12.20
2022-11-13T22:59:25.552Z,12.10
2022-11-13T23:02:11.027Z,12.10
2022-11-13T23:04:56.503Z,12.10
2022-11-13T23:07:41.693Z,12.00
2022-11-13T23:10:27.562Z,12.00
2022-11-13T23:13:13.453Z,12.00
2022-11-13T23:15:59.682Z,12.00
2022-11-13T23:18:46.044Z,12.00
2022-11-13T23:21:31.903Z,12.00
2022-11-13T23:24:17.875Z,12.00
2022-11-13T23:27:03.303Z,12.00
2022-11-13T23:29:50.249Z,11.90
2022-11-13T23:32:35.814Z,11.90
2022-11-13T23:35:21.336Z,11.90
2022-11-13T23:38:06.802Z,11.90
2022-11-13T23:40:57.237Z,11.90
2022-11-13T23:46:48.607Z,11.90
2022-11-13T23:49:33.878Z,11.90
2022-11-13T23:52:19.390Z,11.90
2022-11-13T23:55:05.129Z,11.90
2022-11-13T23:58:01.939Z,11.90
